Time;durP1;ratioP1;P1;durP2;ratioP2;P2;SDS_P1;SDS_P2;PMS_P1;PMS_P2;Temp;Humidity;BMP_temperature;BMP_pressure;BME280_temperature;BME280_humidity;BME280_pressure;Samples;Min_cycle;Max_cycle;Signal;HPM_P1;HPM_P2
2023/08/29 00:02:19;;;;;;;;;3.00;3.00;;;;;17.76;58.21;101005.78;5037385;28;45467;-42
2023/08/29 00:04:44;;;;;;;;;5.00;3.67;;;;;17.78;58.20;101016.34;5037266;28;45477;-42
2023/08/29 00:07:09;;;;;;;;;4.00;4.00;;;;;17.75;58.52;101017.56;5036746;28;51529;-41
2023/08/29 00:09:35;;;;;;;;;4.00;4.00;;;;;17.73;58.64;101022.25;5037001;28;45229;-43
2023/08/29 00:12:00;;;;;;;;;6.67;5.67;;;;;17.65;58.89;101007.06;5036800;28;45451;-41
2023/08/29 00:14:25;;;;;;;;;5.00;5.00;;;;;17.65;59.17;101011.59;5035946;28;45414;-42
2023/08/29 00:16:51;;;;;;;;;2.33;2.33;;;;;17.66;59.17;101013.28;5036629;28;45527;-41
2023/08/29 00:19:17;;;;;;;;;4.00;4.00;;;;;17.64;59.07;101015.31;5036767;28;45372;-42
2023/08/29 00:21:42;;;;;;;;;4.00;4.00;;;;;17.64;59.38;101007.25;5036910;28;45367;-39
2023/08/29 00:24:08;;;;;;;;;4.00;4.00;;;;;17.63;59.17;101014.50;5037197;28;45471;-41
2023/08/29 00:26:34;;;;;;;;;9.67;7.00;;;;;17.59;59.68;101015.03;5036558;28;46271;-41
2023/08/29 00:28:59;;;;;;;;;3.75;2.00;;;;;17.53;59.23;101007.72;5036602;28;45451;-41
2023/08/29 00:31:25;;;;;;;;;2.00;2.00;;;;;17.57;59.56;101022.44;5036587;28;45351;-39
2023/08/29 00:33:51;;;;;;;;;3.00;3.00;;;;;17.59;59.67;101015.03;5036886;28;45416;-42
2023/08/29 00:36:16;;;;;;;;;5.67;4.00;;;;;17.60;59.67;101017.53;5036173;28;46272;-40
2023/08/29 00:38:43;;;;;;;;;6.33;3.00;;;;;17.55;59.95;101008.38;5036212;28;45352;-42
2023/08/29 00:41:10;;;;;;;;;5.00;4.00;;;;;17.56;59.85;101012.72;5036712;28;45394;-41
2023/08/29 00:43:36;;;;;;;;;5.00;4.00;;;;;17.47;60.33;100998.53;5036103;28;45573;-41
2023/08/29 00:46:03;;;;;;;;;3.00;3.00;;;;;17.53;60.09;101008.56;5036296;28;46064;-41
2023/08/29 00:48:30;;;;;;;;;3.00;1.00;;;;;17.49;59.95;101003.72;5036483;28;45464;-41
2023/08/29 00:50:55;;;;;;;;;6.00;4.33;;;;;17.46;60.00;100995.00;5036317;28;45334;-41
2023/08/29 00:53:22;;;;;;;;;4.33;4.00;;;;;17.50;60.04;101005.41;5036793;28;45365;-41
2023/08/29 00:55:48;;;;;;;;;4.67;4.67;;;;;17.43;60.03;100998.06;5036305;28;46247;-42
2023/08/29 00:58:13;;;;;;;;;3.00;3.00;;;;;17.46;60.32;101003.09;5036297;28;45431;-43
2023/08/29 01:00:39;;;;;;;;;4.00;3.67;;;;;17.41;60.46;100994.75;5036114;28;45403;-43
2023/08/29 01:03:05;;;;;;;;;4.67;4.33;;;;;17.35;60.54;100997.31;5035538;28;45493;-41
2023/08/29 01:05:30;;;;;;;;;4.00;4.00;;;;;17.33;61.13;100994.81;5036131;28;46092;-43
2023/08/29 01:08:00;;;;;;;;;6.00;4.00;;;;;17.33;60.98;100992.13;5036011;28;45447;-42
2023/08/29 01:10:36;;;;;;;;;4.00;2.33;;;;;17.33;61.07;101002.91;5036139;28;45406;-43
2023/08/29 01:13:24;;;;;;;;;2.67;2.67;;;;;17.31;61.18;101006.78;5036434;28;45415;-41
2023/08/29 01:15:54;;;;;;;;;3.00;3.00;;;;;17.26;61.48;101007.34;5035842;28;45292;-42
2023/08/29 01:18:21;;;;;;;;;3.67;2.67;;;;;17.20;61.75;101002.69;5035919;28;45412;-42
2023/08/29 01:20:51;;;;;;;;;3.00;3.00;;;;;17.19;61.73;100996.50;5036150;28;45379;-42
2023/08/29 01:23:23;;;;;;;;;2.75;2.75;;;;;17.09;61.88;100987.00;5036075;28;45320;-43
2023/08/29 01:25:55;;;;;;;;;1.00;1.00;;;;;17.10;61.79;100981.44;5035659;28;45555;-42
2023/08/29 01:28:21;;;;;;;;;5.33;4.00;;;;;17.09;61.97;100984.31;5035700;28;45502;-41
2023/08/29 01:30:47;;;;;;;;;6.00;3.00;;;;;17.07;61.99;100981.00;5036048;28;45305;-42
2023/08/29 01:33:13;;;;;;;;;2.33;2.33;;;;;17.04;62.06;100987.56;5036141;28;45531;-42
2023/08/29 01:35:46;;;;;;;;;2.00;2.00;;;;;17.02;61.88;100988.75;5035097;28;46345;-42
2023/08/29 01:38:12;;;;;;;;;5.33;3.67;;;;;16.98;62.65;100995.50;5035845;28;45316;-40
2023/08/29 01:40:39;;;;;;;;;2.33;2.33;;;;;16.95;62.95;100999.41;5035924;28;45428;-41
2023/08/29 01:43:04;;;;;;;;;5.67;2.00;;;;;16.92;62.88;100995.22;5034733;28;45393;-41
2023/08/29 01:45:29;;;;;;;;;3.67;2.33;;;;;16.90;63.13;100999.97;5035780;28;45444;-44
2023/08/29 01:47:55;;;;;;;;;3.00;2.33;;;;;16.88;63.03;101003.84;5035520;28;45394;-44
2023/08/29 01:50:20;;;;;;;;;3.33;3.00;;;;;16.85;63.52;100998.81;5035787;28;45470;-42
2023/08/29 01:52:47;;;;;;;;;5.00;3.00;;;;;16.78;63.41;100984.47;5035669;28;45308;-42
2023/08/29 01:55:12;;;;;;;;;3.00;3.00;;;;;16.83;63.79;100998.19;5035388;28;47703;-42
2023/08/29 01:57:39;;;;;;;;;5.00;3.67;;;;;16.81;64.09;100997.50;5034216;28;45461;-42
2023/08/29 02:00:05;;;;;;;;;3.67;3.00;;;;;16.80;64.18;100995.84;5035448;28;45343;-42
2023/08/29 02:02:30;;;;;;;;;2.00;2.00;;;;;16.78;64.23;100992.53;5035811;28;45340;-42
2023/08/29 02:04:56;;;;;;;;;4.67;4.00;;;;;16.77;64.24;100996.19;5035333;28;46441;-43
2023/08/29 02:07:21;;;;;;;;;3.33;2.33;;;;;16.79;64.24;100996.88;5035519;28;45491;-42
2023/08/29 02:09:47;;;;;;;;;2.67;2.00;;;;;16.77;64.47;100996.19;5035475;28;45484;-43
2023/08/29 02:12:12;;;;;;;;;3.00;3.00;;;;;16.75;64.13;100993.69;5035496;28;45322;-40
2023/08/29 02:14:37;;;;;;;;;2.33;2.33;;;;;16.75;64.00;100990.19;5038328;28;45610;-41
2023/08/29 02:17:03;;;;;;;;;2.67;2.67;;;;;16.70;64.37;100996.06;5038492;28;45509;-41
2023/08/29 02:19:29;;;;;;;;;4.00;4.00;;;;;16.67;64.21;100994.56;5038892;28;45347;-42
2023/08/29 02:21:54;;;;;;;;;4.67;3.67;;;;;16.66;63.90;101000.97;5038893;28;45610;-41
2023/08/29 02:24:19;;;;;;;;;5.67;4.00;;;;;16.66;64.14;100995.59;5038790;28;45387;-42
2023/08/29 02:26:44;;;;;;;;;2.00;2.00;;;;;16.65;64.43;101002.00;5038657;28;45472;-42
2023/08/29 02:29:10;;;;;;;;;4.00;4.00;;;;;16.63;64.63;101009.38;5038674;28;45435;-41
2023/08/29 02:31:35;;;;;;;;;3.33;3.00;;;;;16.61;64.59;101006.06;5038940;28;45494;-39
2023/08/29 02:34:00;;;;;;;;;4.00;3.00;;;;;16.61;64.81;101013.28;5038495;28;46155;-42
2023/08/29 02:36:26;;;;;;;;;4.33;4.33;;;;;16.53;64.81;101006.09;5037000;28;45442;-41
2023/08/29 02:38:53;;;;;;;;;5.67;4.00;;;;;16.62;64.76;101017.63;5038492;28;45332;-40
2023/08/29 02:41:19;;;;;;;;;3.67;3.67;;;;;16.56;64.69;101004.91;5038807;28;45347;-42
2023/08/29 02:43:44;;;;;;;;;3.00;3.00;;;;;16.62;65.05;101014.94;5038347;28;45171;-42
2023/08/29 02:46:09;;;;;;;;;3.67;3.00;;;;;16.64;64.91;101012.91;5038643;28;45317;-40
2023/08/29 02:48:35;;;;;;;;;3.67;3.00;;;;;16.65;64.71;101004.69;5038313;28;45310;-42
2023/08/29 02:51:00;;;;;;;;;5.00;4.00;;;;;16.71;65.04;101003.94;5038539;28;45427;-43
2023/08/29 02:53:26;;;;;;;;;12.67;5.00;;;;;16.68;64.89;100996.22;5038242;28;45995;-42
2023/08/29 02:55:52;;;;;;;;;5.00;4.00;;;;;16.73;65.14;101005.63;5038090;28;45430;-42
2023/08/29 02:58:18;;;;;;;;;6.00;6.00;;;;;16.76;65.07;101005.28;5038430;28;45372;-42
2023/08/29 03:00:44;;;;;;;;;4.00;4.00;;;;;16.75;65.27;101004.44;5038460;28;45393;-41
2023/08/29 03:03:09;;;;;;;;;4.00;3.00;;;;;16.82;65.24;101008.09;5038295;28;45986;-40
2023/08/29 03:05:35;;;;;;;;;5.67;4.67;;;;;16.85;65.14;100994.28;5037985;28;45428;-41
2023/08/29 03:08:03;;;;;;;;;5.00;5.00;;;;;16.89;64.77;101000.13;5038102;28;45345;-42
2023/08/29 03:10:30;;;;;;;;;7.67;6.00;;;;;16.90;64.84;100991.06;5037184;28;45358;-42
2023/08/29 03:12:55;;;;;;;;;5.00;3.33;;;;;16.90;64.87;100988.38;5037698;28;46592;-42
2023/08/29 03:15:20;;;;;;;;;3.33;3.33;;;;;16.93;65.09;100985.31;5037867;28;45427;-41
2023/08/29 03:17:46;;;;;;;;;3.33;3.33;;;;;16.92;65.29;100991.72;5038019;28;45403;-41
2023/08/29 03:20:11;;;;;;;;;2.00;2.00;;;;;16.92;65.52;100986.34;5038286;28;45376;-41
2023/08/29 03:22:37;;;;;;;;;6.00;4.67;;;;;16.90;65.47;100986.53;5037780;28;46274;-40
2023/08/29 03:25:03;;;;;;;;;5.33;5.33;;;;;16.88;65.34;100990.41;5036667;28;45420;-41
2023/08/29 03:27:28;;;;;;;;;5.67;4.33;;;;;16.83;65.39;100987.44;5037912;28;45864;-43
2023/08/29 03:29:54;;;;;;;;;4.33;3.33;;;;;16.77;65.43;100986.31;5037973;28;45889;-41
2023/08/29 03:32:19;;;;;;;;;6.00;4.00;;;;;16.75;65.64;100987.50;5037473;28;46150;-41
2023/08/29 03:34:45;;;;;;;;;3.33;3.00;;;;;16.76;66.21;100992.69;5037714;28;45455;-41
2023/08/29 03:37:10;;;;;;;;;5.00;4.00;;;;;16.76;65.84;100981.94;5037588;28;45779;-42
2023/08/29 03:39:37;;;;;;;;;4.33;4.33;;;;;16.80;65.83;100977.03;5037720;28;45296;-42
2023/08/29 03:42:02;;;;;;;;;4.00;4.00;;;;;16.79;65.98;100972.69;5037292;28;45467;-41
2023/08/29 03:44:27;;;;;;;;;5.00;5.00;;;;;16.82;65.96;100967.78;5037476;28;45330;-41
2023/08/29 03:46:53;;;;;;;;;6.00;4.00;;;;;16.82;66.11;100970.47;5037660;28;45387;-42
2023/08/29 03:49:18;;;;;;;;;9.00;5.00;;;;;16.79;66.06;100968.16;5037717;28;45380;-42
2023/08/29 03:51:43;;;;;;;;;3.67;3.67;;;;;16.79;66.27;100970.00;5037289;28;48858;-41
2023/08/29 03:54:09;;;;;;;;;7.00;5.00;;;;;16.76;66.42;100973.03;5037279;28;45301;-42
2023/08/29 03:56:34;;;;;;;;;5.67;5.33;;;;;16.71;66.96;100981.63;5037302;28;45423;-43
2023/08/29 03:59:01;;;;;;;;;3.33;3.33;;;;;16.69;67.03;100979.13;5037528;28;45543;-41
2023/08/29 04:01:28;;;;;;;;;5.33;4.00;;;;;16.63;66.97;100969.09;5035940;28;46322;-43
2023/08/29 04:03:54;;;;;;;;;8.67;5.00;;;;;16.60;67.19;100965.91;5037224;28;45482;-42
2023/08/29 04:06:19;;;;;;;;;5.67;4.33;;;;;16.60;66.99;100966.78;5037410;28;45439;-45
2023/08/29 04:08:44;;;;;;;;;10.00;6.33;;;;;16.53;67.02;100965.81;5037552;28;45269;-41
2023/08/29 04:11:10;;;;;;;;;10.33;7.00;;;;;16.56;67.21;100967.28;5036924;28;46355;-42
2023/08/29 04:13:35;;;;;;;;;12.33;8.00;;;;;16.51;67.11;100962.47;5036929;28;45343;-42
2023/08/29 04:16:02;;;;;;;;;10.33;8.67;;;;;16.42;67.44;100950.13;5037187;28;45410;-42
2023/08/29 04:18:28;;;;;;;;;12.00;9.67;;;;;16.48;67.59;100970.06;5037550;28;45494;-42
2023/08/29 04:20:53;;;;;;;;;9.00;5.00;;;;;16.47;68.07;100971.91;5036813;28;45940;-42
2023/08/29 04:23:19;;;;;;;;;8.67;8.67;;;;;16.46;67.96;100963.00;5036806;28;46479;-42
2023/08/29 04:25:44;;;;;;;;;11.67;11.00;;;;;16.44;67.79;100964.22;5036993;28;45444;-42
2023/08/29 04:28:10;;;;;;;;;18.33;12.33;;;;;16.39;67.90;100962.09;5036999;28;45392;-42
2023/08/29 04:30:35;;;;;;;;;15.33;11.00;;;;;16.40;68.00;100962.91;5036742;28;45449;-45
2023/08/29 04:33:01;;;;;;;;;14.67;11.00;;;;;16.39;68.31;100961.22;5036545;28;45715;-43
2023/08/29 04:35:26;;;;;;;;;14.33;10.67;;;;;16.36;67.90;100957.06;5036158;28;45304;-42
2023/08/29 04:37:52;;;;;;;;;12.00;12.00;;;;;16.34;67.84;100958.25;5036885;28;45451;-42
2023/08/29 04:40:18;;;;;;;;;12.00;10.00;;;;;16.32;68.13;100960.28;5036552;28;46411;-44
2023/08/29 04:42:44;;;;;;;;;12.33;9.33;;;;;16.22;68.16;100947.09;5036999;28;45333;-42
2023/08/29 04:45:10;;;;;;;;;7.00;6.00;;;;;16.28;68.15;100961.66;5037358;28;45475;-42
2023/08/29 04:47:36;;;;;;;;;9.33;6.33;;;;;16.23;68.12;100961.38;5036883;28;45216;-42
2023/08/29 04:50:03;;;;;;;;;11.00;6.67;;;;;16.23;68.34;100961.38;5036509;28;45284;-42
2023/08/29 04:52:28;;;;;;;;;5.33;5.33;;;;;16.21;68.24;100962.34;5036593;28;45364;-41
2023/08/29 04:54:53;;;;;;;;;8.33;5.00;;;;;16.09;68.42;100949.53;5036426;28;45329;-41
2023/08/29 04:57:19;;;;;;;;;9.33;8.33;;;;;16.13;68.52;100958.88;5036528;28;45348;-44
2023/08/29 04:59:44;;;;;;;;;6.00;6.00;;;;;16.04;68.50;100952.75;5036393;28;45262;-42
2023/08/29 05:02:10;;;;;;;;;6.00;6.00;;;;;16.13;68.90;100972.31;5036544;28;45332;-41
2023/08/29 05:04:35;;;;;;;;;5.67;4.00;;;;;16.08;68.96;100972.00;5036584;28;45213;-42
2023/08/29 05:07:00;;;;;;;;;9.67;5.67;;;;;16.09;68.90;100971.81;5036587;28;45440;-42
2023/08/29 05:09:26;;;;;;;;;7.67;6.33;;;;;16.10;68.92;100964.63;5036086;28;46226;-42
2023/08/29 05:11:51;;;;;;;;;7.33;5.33;;;;;16.06;68.75;100950.72;5034824;28;45805;-42
2023/08/29 05:14:16;;;;;;;;;79.50;53.75;;;;;16.07;68.98;100963.13;5036077;28;45443;-49
2023/08/29 05:16:42;;;;;;;;;14.50;10.00;;;;;16.02;69.24;100954.78;5036239;28;45426;-41
2023/08/29 05:19:08;;;;;;;;;12.67;9.00;;;;;16.07;68.98;100959.63;5035952;28;45382;-41
2023/08/29 05:21:33;;;;;;;;;13.33;9.00;;;;;16.09;69.20;100965.63;5035917;28;45402;-42
2023/08/29 05:23:59;;;;;;;;;6.33;6.00;;;;;16.06;69.13;100971.38;5036223;28;45364;-42
2023/08/29 05:26:25;;;;;;;;;9.00;8.00;;;;;16.10;69.50;100970.84;5036067;28;45313;-41
2023/08/29 05:28:50;;;;;;;;;9.33;5.67;;;;;16.10;69.20;100968.16;5035901;28;45407;-41
2023/08/29 05:31:16;;;;;;;;;9.00;8.00;;;;;16.11;69.21;100967.13;5035764;28;45355;-41
2023/08/29 05:33:41;;;;;;;;;5.00;5.00;;;;;16.14;69.47;100968.63;5036046;28;45328;-40
2023/08/29 05:36:06;;;;;;;;;10.67;9.00;;;;;16.17;69.37;100977.13;5035893;28;45328;-42
2023/08/29 05:38:32;;;;;;;;;7.00;5.00;;;;;16.16;69.51;100972.78;5035643;28;45399;-42
2023/08/29 05:40:57;;;;;;;;;10.33;6.67;;;;;16.22;69.82;100971.25;5035970;28;45459;-41
2023/08/29 05:43:22;;;;;;;;;10.00;6.00;;;;;16.25;69.93;100965.53;5035693;28;45346;-41
2023/08/29 05:45:48;;;;;;;;;5.33;5.33;;;;;16.27;69.42;100958.13;5036063;28;45316;-42
2023/08/29 05:48:13;;;;;;;;;7.33;6.33;;;;;16.29;69.32;100960.63;5037250;28;45302;-42
2023/08/29 05:50:40;;;;;;;;;10.33;10.33;;;;;16.34;69.32;100968.97;5038825;28;45224;-42
2023/08/29 05:53:05;;;;;;;;;9.67;9.33;;;;;16.35;69.05;100963.44;5038058;28;45268;-42
2023/08/29 05:55:31;;;;;;;;;10.00;7.67;;;;;16.33;68.92;100946.66;5039283;28;45431;-41
2023/08/29 05:57:56;;;;;;;;;8.33;6.33;;;;;16.42;69.07;100967.06;5021014;28;48046;-42
2023/08/29 06:00:21;;;;;;;;;9.33;6.00;;;;;16.44;69.07;100964.22;5039120;28;45491;-40
2023/08/29 06:02:47;;;;;;;;;11.00;8.33;;;;;16.46;68.72;100968.38;5038960;28;45288;-42
2023/08/29 06:05:13;;;;;;;;;10.00;7.00;;;;;16.51;68.79;100969.69;5039364;28;45431;-40
2023/08/29 06:07:41;;;;;;;;;6.33;6.33;;;;;16.52;68.75;100961.47;5045419;28;45763;-39
2023/08/29 06:10:07;;;;;;;;;6.67;6.00;;;;;16.50;68.71;100958.13;5059016;28;45322;-40
2023/08/29 06:12:33;;;;;;;;;11.33;9.00;;;;;16.54;68.69;100963.97;5059099;28;45368;-41
2023/08/29 06:14:58;;;;;;;;;10.00;8.33;;;;;16.57;68.63;100961.75;5059058;28;45410;-41
2023/08/29 06:17:23;;;;;;;;;12.67;9.33;;;;;16.60;68.57;100965.91;5058923;28;46304;-42
2023/08/29 06:19:49;;;;;;;;;10.67;6.33;;;;;16.63;68.41;100958.34;5058959;28;45439;-41
2023/08/29 06:22:14;;;;;;;;;12.33;7.00;;;;;16.69;68.61;100962.19;5059204;28;45423;-42
2023/08/29 06:24:39;;;;;;;;;10.67;6.67;;;;;16.71;68.64;100966.34;5058199;28;45223;-43
2023/08/29 06:27:05;;;;;;;;;9.67;6.00;;;;;16.79;68.41;100961.94;5058801;28;46528;-43
2023/08/29 06:29:30;;;;;;;;;7.33;6.00;;;;;16.79;68.10;100952.03;5058896;28;45316;-43
2023/08/29 06:31:56;;;;;;;;;9.67;9.67;;;;;16.83;68.39;100964.09;5056917;28;45510;-42
2023/08/29 06:34:21;;;;;;;;;12.33;7.33;;;;;16.88;68.44;100961.69;5053655;28;45475;-41
2023/08/29 06:36:46;;;;;;;;;10.33;8.00;;;;;16.82;67.76;100935.56;5058222;28;46355;-41
2023/08/29 06:39:12;;;;;;;;;9.00;7.33;;;;;17.09;67.39;100966.34;5057957;28;45843;-41
2023/08/29 06:41:37;;;;;;;;;10.00;8.33;;;;;17.22;67.35;100979.16;5058627;28;45408;-43
2023/08/29 06:44:02;;;;;;;;;9.00;9.00;;;;;17.11;67.17;100939.31;5057463;28;45404;-41
2023/08/29 06:46:28;;;;;;;;;11.67;7.33;;;;;17.44;66.72;100974.69;5058493;28;45995;-41
2023/08/29 06:48:53;;;;;;;;;7.33;7.00;;;;;17.54;66.43;100967.19;5058051;28;45450;-42
2023/08/29 06:51:18;;;;;;;;;8.67;8.00;;;;;17.60;66.37;100963.75;5058036;28;45474;-42
2023/08/29 06:53:44;;;;;;;;;9.67;7.00;;;;;17.71;65.99;100968.66;5058510;28;45317;-42
2023/08/29 06:56:09;;;;;;;;;13.00;9.00;;;;;17.78;66.04;100968.78;5057900;28;45502;-41
2023/08/29 06:58:34;;;;;;;;;6.00;6.00;;;;;17.84;65.91;100962.63;5057746;28;45489;-42
2023/08/29 07:01:00;;;;;;;;;11.00;7.33;;;;;18.00;65.62;100963.44;5056555;28;45374;-42
2023/08/29 07:03:26;;;;;;;;;10.00;8.67;;;;;18.10;65.24;100963.94;5058372;28;45393;-40
2023/08/29 07:05:52;;;;;;;;;128.00;102.50;;;;;18.27;65.00;100969.94;5056649;28;46580;-41
2023/08/29 07:08:18;;;;;;;;;35.00;24.67;;;;;18.44;64.49;100965.94;5057781;28;45352;-41
2023/08/29 07:10:43;;;;;;;;;9.33;8.33;;;;;19.04;63.38;100977.25;5056661;28;45389;-41
2023/08/29 07:13:08;;;;;;;;;7.00;7.00;;;;;20.54;59.40;100969.22;5057788;28;45390;-40
2023/08/29 07:15:34;;;;;;;;;7.67;7.33;;;;;21.97;55.93;100965.81;5057735;28;46059;-41
2023/08/29 07:17:59;;;;;;;;;9.00;9.00;;;;;23.05;52.92;100973.81;5057892;28;45344;-40
2023/08/29 07:20:24;;;;;;;;;9.50;8.00;;;;;24.01;50.73;100975.03;5057823;28;45749;-42
2023/08/29 07:22:50;;;;;;;;;10.00;7.00;;;;;24.90;48.97;100970.56;5057798;28;45358;-42
2023/08/29 07:25:17;;;;;;;;;7.00;7.00;;;;;25.74;47.03;100967.53;5057305;28;46066;-41
2023/08/29 07:27:43;;;;;;;;;7.00;7.00;;;;;26.53;45.09;100962.22;5057627;28;45400;-43
2023/08/29 07:30:14;;;;;;;;;9.50;8.50;;;;;27.30;43.27;100958.78;5056415;28;45374;-41
2023/08/29 07:32:40;;;;;;;;;8.80;7.60;;;;;28.09;41.99;100963.84;5057844;28;45354;-42
2023/08/29 07:35:06;;;;;;;;;6.25;6.25;;;;;28.82;40.43;100956.88;5056989;28;46227;-42
2023/08/29 07:37:31;;;;;;;;;6.00;5.25;;;;;29.49;39.09;100966.31;5056146;28;45534;-41
2023/08/29 07:39:56;;;;;;;;;8.00;6.00;;;;;30.13;38.27;100962.44;5057503;28;45308;-41
2023/08/29 07:42:22;;;;;;;;;5.00;5.00;;;;;30.53;37.33;100963.59;5057885;28;45355;-41
2023/08/29 07:44:47;;;;;;;;;6.00;6.00;;;;;31.01;36.52;100964.13;5057231;28;45943;-40
2023/08/29 07:47:12;;;;;;;;;6.25;4.50;;;;;31.46;35.22;100963.19;5057080;28;45402;-41
2023/08/29 07:49:37;;;;;;;;;4.50;3.00;;;;;31.94;34.43;100962.72;5057696;28;45398;-42
2023/08/29 07:52:03;;;;;;;;;24.00;22.50;;;;;32.48;33.97;100953.56;5057618;28;45368;-40
2023/08/29 07:54:29;;;;;;;;;24.75;19.75;;;;;32.97;33.26;100958.91;5057268;28;46166;-41
2023/08/29 07:56:54;;;;;;;;;6.25;6.00;;;;;33.19;33.94;100957.56;5057107;28;45507;-41
2023/08/29 07:59:20;;;;;;;;;8.00;8.00;;;;;33.39;32.18;100949.06;5057060;28;45402;-41
2023/08/29 08:01:46;;;;;;;;;6.00;4.00;;;;;33.80;30.97;100947.75;5057454;28;45489;-42
2023/08/29 08:04:12;;;;;;;;;7.20;5.60;;;;;34.11;30.82;100950.91;5056854;28;45443;-42
2023/08/29 08:06:37;;;;;;;;;4.00;4.00;;;;;33.81;30.61;100952.97;5057257;28;45323;-42
2023/08/29 08:09:04;;;;;;;;;2.25;2.25;;;;;33.17;30.60;100957.88;5056976;28;45349;-42
2023/08/29 08:11:30;;;;;;;;;3.00;3.00;;;;;32.44;33.11;100947.78;5053537;28;45419;-42
2023/08/29 08:13:56;;;;;;;;;3.75;3.75;;;;;31.60;34.58;100944.16;5056691;28;46572;-42
2023/08/29 08:16:21;;;;;;;;;4.25;3.75;;;;;31.64;33.41;100944.41;5056854;28;45443;-42
2023/08/29 08:18:47;;;;;;;;;4.25;4.25;;;;;31.73;33.55;100935.31;5057006;28;45390;-42
2023/08/29 08:21:12;;;;;;;;;1.50;1.50;;;;;32.08;33.81;100946.41;5057005;28;45534;-42
2023/08/29 08:23:37;;;;;;;;;5.50;5.50;;;;;32.28;32.63;100944.34;5056669;28;46956;-44
2023/08/29 08:26:04;;;;;;;;;6.00;6.00;;;;;32.13;32.66;100943.63;5056824;28;45437;-42
2023/08/29 08:28:29;;;;;;;;;6.60;5.00;;;;;32.20;34.15;100952.38;5056845;28;45447;-41
2023/08/29 08:30:54;;;;;;;;;4.50;3.75;;;;;32.59;32.24;100946.84;5056848;28;45495;-41
2023/08/29 08:33:20;;;;;;;;;4.00;4.00;;;;;33.08;31.30;100953.28;5056498;28;46164;-42
2023/08/29 08:35:45;;;;;;;;;5.25;4.00;;;;;33.45;30.53;100945.16;5056327;28;45474;-41
2023/08/29 08:38:11;;;;;;;;;4.00;4.00;;;;;33.93;29.82;100935.97;5056827;28;45430;-41
2023/08/29 08:40:38;;;;;;;;;3.20;3.20;;;;;34.47;29.25;100940.94;5056693;28;45693;-43
2023/08/29 08:43:05;;;;;;;;;6.40;4.00;;;;;34.39;29.31;100935.28;5056694;28;45487;-44
2023/08/29 08:45:31;;;;;;;;;4.60;4.60;;;;;35.13;27.71;100938.09;5054896;28;45345;-43
2023/08/29 08:47:57;;;;;;;;;2.00;2.00;;;;;37.14;26.61;100942.22;5056497;28;45495;-42
2023/08/29 08:50:24;;;;;;;;;4.80;4.00;;;;;39.37;23.74;100938.03;5056729;28;45368;-41
2023/08/29 08:52:51;;;;;;;;;5.00;5.00;;;;;40.43;22.01;100936.88;5056002;28;46521;-42
2023/08/29 08:55:17;;;;;;;;;4.00;2.00;;;;;41.79;20.59;100937.38;5056398;28;45792;-45
2023/08/29 08:57:43;;;;;;;;;2.00;2.00;;;;;42.68;19.83;100936.34;5056279;28;45296;-41
2023/08/29 09:00:08;;;;;;;;;3.00;3.00;;;;;40.71;20.73;100946.25;5056179;28;45324;-47
2023/08/29 09:02:36;;;;;;;;;3.75;3.50;;;;;39.34;23.13;100911.66;5056435;28;45273;-44
2023/08/29 09:05:01;;;;;;;;;4.80;3.00;;;;;38.06;23.10;100961.72;5055810;28;45484;-42
2023/08/29 09:07:27;;;;;;;;;2.75;2.75;;;;;40.21;21.75;100949.22;5056296;28;45390;-49
2023/08/29 09:10:25;;;;;;;;;4.50;3.75;;;;;42.52;20.02;100958.69;5055167;28;45432;-43
2023/08/29 09:12:55;;;;;;;;;3.20;3.20;;;;;44.35;17.55;100943.38;4993909;28;45478;-42
2023/08/29 09:15:21;;;;;;;;;4.40;2.80;;;;;45.67;16.27;100937.13;4993493;28;45452;-44
2023/08/29 09:17:51;;;;;;;;;1.60;1.60;;;;;46.88;16.01;100932.03;4993801;28;45383;-44
2023/08/29 09:20:18;;;;;;;;;2.60;1.80;;;;;47.78;14.77;100928.59;4994257;28;45474;-45
2023/08/29 09:22:45;;;;;;;;;3.40;2.20;;;;;48.59;14.07;100926.41;4992677;28;46388;-43
2023/08/29 09:25:11;;;;;;;;;2.00;1.00;;;;;49.15;13.41;100928.44;4993333;28;45370;-43
2023/08/29 09:27:43;;;;;;;;;3.00;1.00;;;;;49.73;14.87;100929.09;4993888;28;45425;-45
2023/08/29 09:30:12;;;;;;;;;1.00;1.00;;;;;50.29;12.81;100927.19;4993663;28;45448;-45
2023/08/29 09:32:51;;;;;;;;;3.60;1.00;;;;;50.88;12.56;100923.50;4993420;28;46734;-44
2023/08/29 09:35:19;;;;;;;;;3.40;1.40;;;;;51.33;11.96;100914.94;4993509;28;45374;-41
2023/08/29 09:37:53;;;;;;;;;2.00;1.40;;;;;51.78;13.16;100926.16;4976856;28;45451;-45
2023/08/29 09:40:20;;;;;;;;;1.40;1.40;;;;;52.24;12.09;100919.84;4993698;28;45532;-44
2023/08/29 09:42:52;;;;;;;;;1.20;1.20;;;;;52.55;12.05;100909.25;4993579;28;45476;-44
2023/08/29 09:45:17;;;;;;;;;1.80;1.80;;;;;52.30;12.12;100901.13;4993286;28;45434;-44
2023/08/29 09:47:42;;;;;;;;;1.00;1.00;;;;;52.55;12.10;100905.53;5002603;28;45662;-43
2023/08/29 09:50:08;;;;;;;;;1.00;1.00;;;;;52.70;11.80;100917.50;5055627;28;45412;-43
2023/08/29 09:52:35;;;;;;;;;3.00;1.50;;;;;52.42;11.18;100898.88;5055422;28;46134;-44
2023/08/29 09:55:02;;;;;;;;;1.20;1.20;;;;;52.34;11.22;100913.22;5055418;28;45239;-42
2023/08/29 09:57:31;;;;;;;;;2.00;2.00;;;;;52.59;12.10;100912.78;5055710;28;45420;-42
2023/08/29 09:59:57;;;;;;;;;1.00;1.00;;;;;50.41;12.64;100917.41;5055411;28;45451;-44
2023/08/29 10:02:24;;;;;;;;;2.60;2.00;;;;;48.66;13.92;100904.63;5055478;28;45451;-44
2023/08/29 10:05:05;;;;;;;;;1.60;1.60;;;;;47.55;14.17;100902.72;5055434;28;45388;-43
2023/08/29 10:07:51;;;;;;;;;1.40;1.40;;;;;45.69;15.70;100901.84;5055631;28;46031;-43
2023/08/29 10:10:17;;;;;;;;;0.80;0.80;;;;;47.38;14.59;100888.16;5055460;28;45546;-44
2023/08/29 10:12:45;;;;;;;;;2.60;2.60;;;;;45.38;15.17;100874.09;5055095;28;47142;-43
2023/08/29 10:15:11;;;;;;;;;1.80;1.80;;;;;42.53;16.72;100895.19;5054847;28;45301;-45
2023/08/29 10:17:36;;;;;;;;;2.00;2.00;;;;;40.07;19.38;100885.38;5055209;28;45331;-43
2023/08/29 10:20:13;;;;;;;;;2.25;2.25;;;;;38.09;20.56;100905.50;5055542;28;45399;-42
2023/08/29 10:22:45;;;;;;;;;2.20;2.20;;;;;36.16;22.61;100891.28;5054845;28;47343;-42
2023/08/29 10:25:13;;;;;;;;;3.20;2.00;;;;;34.60;24.33;100894.31;5054169;28;45376;-41
2023/08/29 10:27:40;;;;;;;;;1.80;1.80;;;;;33.35;25.49;100890.09;5055209;28;45544;-44
2023/08/29 10:30:06;;;;;;;;;4.20;4.20;;;;;32.19;26.53;100887.41;5055052;28;45430;-41
2023/08/29 10:32:34;;;;;;;;;2.80;2.80;;;;;31.13;28.15;100890.44;5054610;28;46168;-43
2023/08/29 10:34:59;;;;;;;;;5.20;4.00;;;;;30.19;29.44;100881.81;5057042;28;45205;-44
2023/08/29 10:37:26;;;;;;;;;1.50;1.50;;;;;30.12;29.70;100886.69;5058092;28;45685;-43
2023/08/29 10:39:51;;;;;;;;;4.20;4.20;;;;;32.32;28.16;100886.78;5058364;28;45408;-43
2023/08/29 10:42:17;;;;;;;;;4.00;4.00;;;;;34.67;25.35;100876.19;5058152;28;45320;-43
2023/08/29 10:44:44;;;;;;;;;1.25;1.25;;;;;36.05;23.39;100873.28;5057954;28;45419;-42
2023/08/29 10:47:31;;;;;;;;;3.60;1.80;;;;;35.83;23.15;100863.00;5057871;28;45410;-45
2023/08/29 10:49:59;;;;;;;;;4.20;3.00;;;;;37.71;21.34;100867.25;5058262;28;45494;-45
2023/08/29 10:52:36;;;;;;;;;2.60;2.60;;;;;36.66;22.44;100855.09;5058039;28;46278;-43
2023/08/29 10:55:17;;;;;;;;;0.40;0.40;;;;;36.65;22.51;100872.03;5057735;28;45641;-44
2023/08/29 10:57:43;;;;;;;;;3.80;2.00;;;;;37.94;21.37;100860.44;5057752;28;45348;-43
2023/08/29 11:00:17;;;;;;;;;3.00;2.50;;;;;38.07;21.25;100852.25;5058017;28;45370;-45
2023/08/29 11:02:43;;;;;;;;;2.60;2.60;;;;;37.64;22.46;100842.78;5057714;28;45376;-43
2023/08/29 11:05:10;;;;;;;;;3.50;2.00;;;;;38.36;21.35;100846.81;5057517;28;45371;-41
2023/08/29 11:07:35;;;;;;;;;2.60;2.60;;;;;37.36;21.39;100850.56;5058123;28;45292;-44
2023/08/29 11:10:14;;;;;;;;;2.75;2.75;;;;;36.41;22.70;100862.13;5057689;28;45399;-42
2023/08/29 11:13:02;;;;;;;;;2.00;2.00;;;;;34.69;25.74;100862.09;5057487;28;46241;-44
2023/08/29 11:15:46;;;;;;;;;2.80;2.80;;;;;33.24;27.43;100861.81;5057376;28;45419;-43
2023/08/29 11:18:24;;;;;;;;;2.00;2.00;;;;;32.07;29.63;100865.78;5057477;28;45410;-43
2023/08/29 11:20:49;;;;;;;;;3.00;2.00;;;;;31.07;30.87;100864.09;5057973;28;45241;-41
2023/08/29 11:23:15;;;;;;;;;5.75;3.25;;;;;30.12;32.65;100864.75;5053621;28;46314;-42